Time;durP1;ratioP1;P1;durP2;ratioP2;P2;SDS_P1;SDS_P2;PMS_P1;PMS_P2;Temp;Humidity;BMP_temperature;BMP_pressure;BME280_temperature;BME280_humidity;BME280_pressure;Samples;Min_cycle;Max_cycle;Signal;HPM_P1;HPM_P2
2020/12/21 00:01:07;;;;;;;17.85;16.15;;;3.60;75.80;;;;;;4990229;29;20050;-73
2020/12/21 00:03:39;;;;;;;17.20;15.50;;;3.50;75.60;;;;;;4990634;29;20684;-75
2020/12/21 00:06:12;;;;;;;16.08;14.68;;;3.50;75.50;;;;;;4994393;29;20046;-76
2020/12/21 00:08:43;;;;;;;16.33;14.80;;;3.50;75.50;;;;;;5006034;29;20061;-75
2020/12/21 00:11:15;;;;;;;15.85;14.45;;;3.50;75.60;;;;;;4993068;29;20133;-74
2020/12/21 00:13:47;;;;;;;15.48;14.07;;;3.40;76.40;;;;;;4992797;29;20417;-74
2020/12/21 00:16:19;;;;;;;16.15;14.70;;;3.40;76.00;;;;;;4990820;29;20134;-74
2020/12/21 00:18:51;;;;;;;15.70;14.30;;;3.40;75.80;;;;;;4989451;29;20524;-74
2020/12/21 00:21:22;;;;;;;14.25;13.07;;;3.40;75.60;;;;;;4992331;29;20394;-74
2020/12/21 00:23:54;;;;;;;13.52;12.43;;;3.40;75.70;;;;;;4991774;29;20046;-74
2020/12/21 00:26:25;;;;;;;13.40;12.40;;;3.40;76.10;;;;;;4992243;29;20054;-74
2020/12/21 00:28:57;;;;;;;12.55;11.65;;;3.40;77.10;;;;;;4990449;29;20411;-74
2020/12/21 00:31:32;;;;;;;13.38;12.27;;;3.40;78.00;;;;;;4990662;29;20050;-74
2020/12/21 00:34:05;;;;;;;13.32;12.32;;;3.40;79.50;;;;;;4993240;29;20115;-74
2020/12/21 00:36:44;;;;;;;15.07;13.77;;;3.50;79.10;;;;;;4991692;29;20050;-74
2020/12/21 00:39:16;;;;;;;15.02;13.68;;;3.50;77.80;;;;;;4990353;29;20046;-75
2020/12/21 00:41:49;;;;;;;15.98;14.48;;;3.50;77.10;;;;;;4993204;29;20054;-74
2020/12/21 00:44:20;;;;;;;15.90;14.40;;;3.60;76.50;;;;;;5004377;29;20068;-75
2020/12/21 00:46:52;;;;;;;15.52;14.10;;;3.60;76.30;;;;;;4988417;29;20054;-75
2020/12/21 00:49:23;;;;;;;14.50;13.30;;;3.60;76.30;;;;;;4976612;29;20058;-74
2020/12/21 00:51:55;;;;;;;15.10;13.70;;;3.60;76.30;;;;;;4988448;29;20115;-75
2020/12/21 00:54:27;;;;;;;15.15;13.65;;;3.60;75.90;;;;;;4991575;29;20125;-75
2020/12/21 00:56:58;;;;;;;15.02;13.82;;;3.60;75.80;;;;;;4991171;29;20043;-75
2020/12/21 00:59:30;;;;;;;14.32;13.15;;;3.60;76.20;;;;;;4991347;29;20535;-75
2020/12/21 01:02:05;;;;;;;13.88;12.77;;;3.60;76.10;;;;;;4989218;29;20050;-75
2020/12/21 01:04:37;;;;;;;14.20;13.00;;;3.60;76.50;;;;;;4999084;29;20406;-76
2020/12/21 01:07:08;;;;;;;13.57;12.48;;;3.70;76.70;;;;;;4990763;29;20141;-75
2020/12/21 01:09:45;;;;;;;14.25;13.10;;;3.70;77.10;;;;;;4992209;29;20505;-76
2020/12/21 01:12:17;;;;;;;15.65;14.25;;;3.60;77.00;;;;;;4990444;29;20038;-74
2020/12/21 01:14:51;;;;;;;15.45;13.95;;;3.60;76.50;;;;;;4990196;29;20054;-74
2020/12/21 01:17:22;;;;;;;17.20;15.60;;;3.60;76.80;;;;;;4989079;29;20407;-75
2020/12/21 01:19:54;;;;;;;16.08;14.73;;;3.60;76.40;;;;;;4990011;29;20054;-75
2020/12/21 01:22:25;;;;;;;16.63;15.07;;;3.60;76.30;;;;;;4991740;29;20569;-75
2020/12/21 01:24:56;;;;;;;15.52;14.23;;;3.60;76.10;;;;;;4990631;29;20057;-74
2020/12/21 01:27:28;;;;;;;15.68;14.27;;;3.60;76.30;;;;;;4982861;29;20049;-75
2020/12/21 01:29:59;;;;;;;16.20;14.70;;;3.60;76.10;;;;;;4989531;29;20733;-74
2020/12/21 01:32:31;;;;;;;15.60;14.20;;;3.60;75.90;;;;;;4990716;29;20114;-74
2020/12/21 01:35:03;;;;;;;15.63;14.23;;;3.70;75.90;;;;;;4989699;29;20095;-74
2020/12/21 01:37:35;;;;;;;16.20;14.80;;;3.70;76.00;;;;;;4989647;29;20050;-74
2020/12/21 01:40:07;;;;;;;15.52;14.15;;;3.70;75.90;;;;;;4989206;29;20058;-74
2020/12/21 01:42:39;;;;;;;16.85;15.35;;;3.70;75.90;;;;;;4990857;29;20432;-75
2020/12/21 01:45:10;;;;;;;15.48;14.07;;;3.70;76.00;;;;;;5003739;29;20505;-76
2020/12/21 01:47:42;;;;;;;15.63;14.27;;;3.70;76.00;;;;;;4989568;29;20822;-75
2020/12/21 01:50:14;;;;;;;15.77;14.40;;;3.70;75.80;;;;;;4991648;29;20106;-75
2020/12/21 01:52:46;;;;;;;16.15;14.85;;;3.70;75.80;;;;;;4990866;29;20129;-75
2020/12/21 01:55:18;;;;;;;15.15;13.85;;;3.70;75.70;;;;;;4989092;29;20118;-75
2020/12/21 01:57:50;;;;;;;16.27;14.88;;;3.70;76.10;;;;;;4987844;29;20676;-75
2020/12/21 02:00:21;;;;;;;15.30;14.02;;;3.70;76.30;;;;;;4989727;29;20137;-75
2020/12/21 02:02:53;;;;;;;15.23;13.93;;;3.70;76.60;;;;;;5005782;29;20516;-74
2020/12/21 02:05:25;;;;;;;15.52;14.20;;;3.60;76.70;;;;;;4991775;29;20053;-75
2020/12/21 02:07:56;;;;;;;15.98;14.60;;;3.60;76.50;;;;;;4989924;29;20057;-75
2020/12/21 02:10:29;;;;;;;15.02;13.82;;;3.70;76.70;;;;;;4991129;29;20057;-76
2020/12/21 02:13:00;;;;;;;15.13;13.73;;;3.70;76.80;;;;;;4989236;29;20066;-75
2020/12/21 02:15:33;;;;;;;15.95;14.55;;;3.70;76.90;;;;;;4989951;29;20077;-76
2020/12/21 02:18:04;;;;;;;14.63;13.43;;;3.70;76.80;;;;;;4988480;29;20462;-76
2020/12/21 02:20:36;;;;;;;14.95;13.65;;;3.70;77.00;;;;;;4990486;29;20054;-76
2020/12/21 02:23:07;;;;;;;13.88;12.77;;;3.70;78.60;;;;;;4989995;29;20077;-76
2020/12/21 02:25:38;;;;;;;14.40;13.23;;;3.70;78.80;;;;;;4984961;29;20084;-76
2020/12/21 02:28:10;;;;;;;14.50;13.30;;;3.70;79.10;;;;;;4989202;29;20363;-76
2020/12/21 02:30:41;;;;;;;15.05;13.68;;;3.70;79.10;;;;;;4989393;29;20058;-75
2020/12/21 02:33:13;;;;;;;14.60;13.40;;;3.70;78.10;;;;;;4989470;29;20058;-76
2020/12/21 02:35:46;;;;;;;14.15;13.05;;;3.80;77.90;;;;;;4990923;29;20853;-75
2020/12/21 02:38:18;;;;;;;14.60;13.20;;;3.80;79.50;;;;;;4989626;29;20472;-75
2020/12/21 02:40:50;;;;;;;15.10;13.90;;;3.70;77.80;;;;;;4987963;29;20054;-74
2020/12/21 02:43:23;;;;;;;15.00;13.70;;;3.70;77.30;;;;;;4993813;29;20057;-75
2020/12/21 02:45:55;;;;;;;15.95;14.60;;;3.70;77.80;;;;;;4992141;29;20099;-75
2020/12/21 02:48:27;;;;;;;15.82;14.40;;;3.80;76.90;;;;;;4997184;29;20050;-75
2020/12/21 02:50:58;;;;;;;14.85;13.55;;;3.80;76.80;;;;;;4988282;29;20103;-75
2020/12/21 02:53:30;;;;;;;15.90;14.32;;;3.80;76.60;;;;;;4994020;29;20058;-75
2020/12/21 02:56:05;;;;;;;15.40;14.10;;;3.80;76.60;;;;;;4991773;29;20054;-75
2020/12/21 02:58:37;;;;;;;15.95;14.55;;;3.80;76.50;;;;;;5001171;29;20528;-74
2020/12/21 03:01:09;;;;;;;15.45;14.05;;;3.80;76.40;;;;;;5005834;29;20130;-74
2020/12/21 03:03:40;;;;;;;15.68;14.38;;;3.80;76.40;;;;;;4992887;29;20053;-74
2020/12/21 03:06:12;;;;;;;15.40;14.00;;;3.80;76.70;;;;;;4993386;29;20049;-74
2020/12/21 03:08:43;;;;;;;14.88;13.57;;;3.80;76.60;;;;;;4992984;29;20376;-73
2020/12/21 03:11:15;;;;;;;14.43;13.23;;;3.80;76.60;;;;;;4993741;29;20038;-74
2020/12/21 03:13:46;;;;;;;15.45;14.15;;;3.80;76.90;;;;;;4993389;29;20102;-74
2020/12/21 03:16:18;;;;;;;15.25;13.93;;;3.80;77.20;;;;;;4991775;29;20046;-74
2020/12/21 03:18:50;;;;;;;15.13;13.82;;;3.80;77.60;;;;;;4992971;29;20146;-74
2020/12/21 03:21:21;;;;;;;14.85;13.45;;;3.80;77.60;;;;;;4991914;29;20080;-74
2020/12/21 03:23:53;;;;;;;14.68;13.48;;;3.90;77.60;;;;;;4991642;29;20046;-75
2020/12/21 03:26:26;;;;;;;15.95;14.55;;;3.90;77.80;;;;;;4990782;29;20054;-74
2020/12/21 03:28:57;;;;;;;15.40;14.10;;;3.80;77.60;;;;;;4991177;29;20054;-74
2020/12/21 03:31:29;;;;;;;14.25;13.13;;;3.80;77.30;;;;;;4991978;29;20098;-74
2020/12/21 03:34:00;;;;;;;14.85;13.55;;;3.80;77.30;;;;;;4990648;29;20054;-74
2020/12/21 03:36:32;;;;;;;15.60;14.23;;;3.90;77.20;;;;;;4992501;29;20061;-75
2020/12/21 03:39:03;;;;;;;14.85;13.60;;;3.80;77.10;;;;;;4993105;29;20478;-75
2020/12/21 03:41:35;;;;;;;14.75;13.50;;;3.90;77.20;;;;;;4990960;29;20087;-75
2020/12/21 03:44:07;;;;;;;15.38;14.15;;;3.90;77.30;;;;;;4993025;29;20050;-75
2020/12/21 03:46:38;;;;;;;14.82;13.63;;;3.90;77.10;;;;;;4987998;29;20060;-75
2020/12/21 03:49:10;;;;;;;14.65;13.45;;;3.90;77.00;;;;;;4976053;29;20466;-75
2020/12/21 03:51:41;;;;;;;15.25;13.85;;;3.90;77.40;;;;;;4988635;29;20204;-75
2020/12/21 03:54:13;;;;;;;14.73;13.52;;;3.90;77.60;;;;;;4994571;29;20049;-75
2020/12/21 03:56:44;;;;;;;14.27;13.07;;;3.90;77.20;;;;;;4992079;29;20078;-75
2020/12/21 03:59:16;;;;;;;13.65;12.65;;;3.90;77.40;;;;;;4992890;29;21303;-75
2020/12/21 04:01:47;;;;;;;14.18;13.02;;;3.90;77.40;;;;;;4988615;29;20126;-75
2020/12/21 04:04:19;;;;;;;14.65;13.55;;;3.90;77.40;;;;;;4992546;29;20046;-74
2020/12/21 04:06:51;;;;;;;14.52;13.32;;;3.90;77.20;;;;;;4991569;29;20870;-75
2020/12/21 04:09:23;;;;;;;14.40;13.30;;;3.90;77.70;;;;;;4994596;29;20150;-75
2020/12/21 04:11:54;;;;;;;14.27;13.18;;;4.00;79.30;;;;;;4990489;29;20576;-75
2020/12/21 04:14:25;;;;;;;14.13;13.02;;;3.90;78.90;;;;;;4993130;29;20474;-75
2020/12/21 04:16:57;;;;;;;14.38;13.27;;;3.90;79.70;;;;;;4990068;29;20077;-75
2020/12/21 04:19:28;;;;;;;14.98;13.73;;;3.90;79.20;;;;;;4994217;29;20129;-75
2020/12/21 04:22:00;;;;;;;15.60;14.35;;;3.90;78.80;;;;;;4992333;29;20451;-75
2020/12/21 04:24:31;;;;;;;14.30;13.20;;;3.90;78.00;;;;;;4993309;29;20038;-76
2020/12/21 04:27:02;;;;;;;15.15;13.95;;;4.00;77.60;;;;;;4989306;29;20046;-76
2020/12/21 04:29:34;;;;;;;15.95;14.60;;;3.90;77.50;;;;;;4991665;29;20038;-76
2020/12/21 04:32:06;;;;;;;15.02;13.73;;;3.90;77.50;;;;;;4990061;29;20462;-76
2020/12/21 04:34:37;;;;;;;15.93;14.48;;;3.90;77.40;;;;;;4992762;29;20047;-76
2020/12/21 04:37:09;;;;;;;15.32;14.07;;;3.90;77.40;;;;;;4990748;29;20111;-76
2020/12/21 04:39:40;;;;;;;15.13;13.77;;;3.90;77.40;;;;;;4990652;29;20082;-76
2020/12/21 04:42:12;;;;;;;14.95;13.60;;;3.90;77.50;;;;;;4990801;29;20053;-76
2020/12/21 04:44:44;;;;;;;15.02;13.82;;;3.90;77.40;;;;;;4990658;29;20058;-76
2020/12/21 04:47:16;;;;;;;15.15;13.95;;;3.90;77.60;;;;;;4989764;29;20046;-76
2020/12/21 04:49:47;;;;;;;15.18;13.85;;;3.90;77.40;;;;;;4990994;29;20407;-76
2020/12/21 04:52:19;;;;;;;15.38;14.07;;;3.90;77.20;;;;;;4990603;29;20042;-74
2020/12/21 04:54:50;;;;;;;14.43;13.13;;;3.90;77.20;;;;;;4992086;29;20046;-75
2020/12/21 04:57:22;;;;;;;14.65;13.38;;;3.90;77.10;;;;;;4991841;29;20102;-75
2020/12/21 04:59:53;;;;;;;14.27;13.15;;;3.90;77.00;;;;;;4990885;29;20118;-75
2020/12/21 05:02:25;;;;;;;14.80;13.57;;;3.90;77.40;;;;;;4991967;29;20050;-75
2020/12/21 05:04:56;;;;;;;15.10;13.90;;;3.90;77.20;;;;;;4994024;29;20079;-75
2020/12/21 05:07:31;;;;;;;14.20;13.00;;;3.90;77.10;;;;;;4992106;29;20107;-74
2020/12/21 05:10:08;;;;;;;15.32;14.13;;;3.90;76.90;;;;;;4991149;29;20042;-74
2020/12/21 05:12:40;;;;;;;13.98;12.88;;;3.90;76.90;;;;;;4991450;29;20050;-75
2020/12/21 05:15:20;;;;;;;14.35;13.25;;;3.90;77.40;;;;;;4989856;29;20069;-74
2020/12/21 05:18:05;;;;;;;14.07;12.93;;;3.90;77.00;;;;;;4989634;29;20038;-74
2020/12/21 05:20:38;;;;;;;14.02;12.93;;;3.90;77.70;;;;;;4988727;29;20169;-75
2020/12/21 05:23:16;;;;;;;14.00;13.00;;;3.80;77.50;;;;;;4991360;29;20042;-75
2020/12/21 05:26:01;;;;;;;13.98;12.90;;;3.80;78.30;;;;;;4985269;29;20157;-75
2020/12/21 05:28:35;;;;;;;14.75;13.55;;;3.80;78.20;;;;;;4991170;29;20094;-75
2020/12/21 05:31:09;;;;;;;14.38;13.27;;;3.80;78.50;;;;;;4990573;29;20956;-75
2020/12/21 05:33:45;;;;;;;14.35;13.25;;;3.80;78.30;;;;;;4991900;29;20116;-74
2020/12/21 05:36:21;;;;;;;14.73;13.63;;;3.70;78.10;;;;;;4990407;29;20070;-75
2020/12/21 05:39:05;;;;;;;14.48;13.38;;;3.70;78.10;;;;;;4990534;29;20057;-74
2020/12/21 05:41:36;;;;;;;15.20;14.00;;;3.70;78.20;;;;;;4988463;29;20194;-74
2020/12/21 05:44:08;;;;;;;14.07;13.02;;;3.70;78.90;;;;;;4990383;29;20535;-75
2020/12/21 05:46:39;;;;;;;13.85;12.75;;;3.70;78.40;;;;;;4989305;29;20413;-75
2020/12/21 05:49:12;;;;;;;13.60;12.50;;;3.80;78.10;;;;;;4989135;29;20114;-75
2020/12/21 05:51:47;;;;;;;13.70;12.60;;;3.80;77.80;;;;;;4987359;29;20054;-75
2020/12/21 05:54:19;;;;;;;13.80;12.70;;;3.80;77.50;;;;;;4991455;29;20073;-77
2020/12/21 05:56:51;;;;;;;12.98;11.98;;;3.70;77.30;;;;;;4989136;29;20547;-74
2020/12/21 05:59:24;;;;;;;13.57;12.50;;;3.70;77.00;;;;;;4991811;29;20640;-76
2020/12/21 06:01:59;;;;;;;13.15;12.10;;;3.60;76.80;;;;;;4987419;29;20114;-76
2020/12/21 06:04:40;;;;;;;12.70;11.70;;;3.60;76.50;;;;;;4993031;29;20113;-77
2020/12/21 06:07:22;;;;;;;12.60;11.60;;;3.60;76.20;;;;;;4989924;29;20081;-77
2020/12/21 06:10:00;;;;;;;12.98;11.98;;;3.50;76.10;;;;;;4989616;29;20459;-78
2020/12/21 06:12:47;;;;;;;12.85;11.85;;;3.40;76.40;;;;;;4987222;29;20114;-75
2020/12/21 06:15:23;;;;;;;13.75;12.65;;;3.40;76.00;;;;;;4990870;29;20038;-74
2020/12/21 06:17:55;;;;;;;13.63;12.52;;;3.40;76.00;;;;;;4995905;29;20553;-75
2020/12/21 06:20:27;;;;;;;13.70;12.60;;;3.40;76.00;;;;;;4995697;29;20122;-76
2020/12/21 06:23:09;;;;;;;14.50;13.30;;;3.40;76.10;;;;;;4994813;29;20038;-76
2020/12/21 06:25:40;;;;;;;13.57;12.48;;;3.30;76.30;;;;;;4991377;29;20115;-77
2020/12/21 06:28:12;;;;;;;13.98;12.80;;;3.30;76.30;;;;;;4990943;29;20078;-76
2020/12/21 06:30:44;;;;;;;13.50;12.40;;;3.30;76.30;;;;;;4988309;29;20050;-75
2020/12/21 06:33:15;;;;;;;13.68;12.57;;;3.30;76.40;;;;;;4990204;29;20066;-76
2020/12/21 06:35:46;;;;;;;13.00;11.90;;;3.20;76.20;;;;;;4989225;29;20050;-76
2020/12/21 06:38:18;;;;;;;12.43;11.43;;;3.10;77.00;;;;;;4991007;29;20506;-76
2020/12/21 06:40:49;;;;;;;12.85;11.85;;;3.10;78.30;;;;;;4990226;29;20111;-76
2020/12/21 06:43:21;;;;;;;12.80;11.80;;;3.00;79.50;;;;;;4991353;29;20106;-75
2020/12/21 06:45:52;;;;;;;12.60;11.60;;;3.00;78.00;;;;;;4995538;29;20059;-76
2020/12/21 06:48:37;;;;;;;12.30;11.40;;;3.00;78.10;;;;;;5001257;29;20118;-75
2020/12/21 06:51:13;;;;;;;12.63;11.65;;;3.00;78.20;;;;;;4993185;29;20046;-75
2020/12/21 06:53:56;;;;;;;12.70;11.70;;;2.90;78.90;;;;;;4991577;29;20394;-76
2020/12/21 06:56:28;;;;;;;12.57;11.50;;;2.90;78.90;;;;;;5005300;29;20471;-76
2020/12/21 06:59:00;;;;;;;11.88;10.98;;;2.90;78.90;;;;;;4995352;29;20625;-76
2020/12/21 07:01:32;;;;;;;12.02;11.02;;;2.90;78.60;;;;;;4992729;29;20054;-76
2020/12/21 07:04:04;;;;;;;13.65;12.45;;;2.80;78.30;;;;;;4997216;29;20054;-75
2020/12/21 07:06:38;;;;;;;13.65;12.40;;;2.80;78.00;;;;;;4994430;29;20134;-76
2020/12/21 07:09:10;;;;;;;12.77;11.68;;;2.80;77.50;;;;;;4992749;29;20054;-76
2020/12/21 07:11:42;;;;;;;11.57;10.57;;;2.80;77.20;;;;;;4991987;29;20128;-76
2020/12/21 07:14:14;;;;;;;11.82;10.63;;;2.80;77.00;;;;;;4992271;29;20110;-76
2020/12/21 07:16:46;;;;;;;12.18;11.07;;;2.70;76.80;;;;;;4991635;29;20592;-75
2020/12/21 07:19:20;;;;;;;12.20;11.20;;;2.70;77.40;;;;;;4993863;29;20069;-77
2020/12/21 07:21:53;;;;;;;12.40;11.30;;;2.60;77.10;;;;;;4991583;29;20597;-77
2020/12/21 07:24:25;;;;;;;12.40;11.30;;;2.60;77.20;;;;;;4991929;29;20038;-76
2020/12/21 07:26:56;;;;;;;12.30;11.02;;;2.60;77.60;;;;;;4989939;29;20049;-76
2020/12/21 07:29:39;;;;;;;11.65;10.65;;;2.60;77.30;;;;;;4992227;29;20502;-77
2020/12/21 07:32:11;;;;;;;11.98;10.77;;;2.60;77.20;;;;;;4992750;29;20043;-77
2020/12/21 07:34:42;;;;;;;11.63;10.63;;;2.60;77.40;;;;;;4991757;29;20529;-77
2020/12/21 07:37:14;;;;;;;11.98;10.98;;;2.60;78.10;;;;;;4991512;29;20034;-77
2020/12/21 07:39:50;;;;;;;12.27;11.27;;;2.50;78.30;;;;;;4992347;29;20436;-77
2020/12/21 07:42:23;;;;;;;12.55;11.45;;;2.30;78.70;;;;;;5005615;29;20046;-77
2020/12/21 07:44:58;;;;;;;13.10;11.80;;;2.40;78.40;;;;;;4991583;29;20051;-77
2020/12/21 07:47:33;;;;;;;13.40;12.20;;;2.40;78.10;;;;;;4975823;29;20049;-77
2020/12/21 07:50:06;;;;;;;14.48;13.07;;;2.40;77.90;;;;;;4991128;29;20766;-77
2020/12/21 07:52:38;;;;;;;13.38;11.88;;;2.40;77.60;;;;;;4995443;29;20045;-77
2020/12/21 07:55:11;;;;;;;13.15;11.95;;;2.20;78.30;;;;;;4992055;29;20502;-76
2020/12/21 07:57:43;;;;;;;13.80;12.60;;;2.00;79.80;;;;;;4993083;29;20059;-75
2020/12/21 08:00:15;;;;;;;13.18;11.98;;;2.00;80.30;;;;;;4999931;29;20054;-77
2020/12/21 08:02:51;;;;;;;13.02;11.73;;;2.00;79.90;;;;;;4993360;29;20050;-77
2020/12/21 08:05:22;;;;;;;12.60;11.32;;;2.10;80.10;;;;;;4975856;29;20153;-77
2020/12/21 08:07:54;;;;;;;13.98;12.77;;;2.20;80.20;;;;;;4991708;29;20049;-77
2020/12/21 08:10:25;;;;;;;13.65;12.45;;;2.30;81.10;;;;;;4990176;29;20053;-77
2020/12/21 08:12:57;;;;;;;13.23;12.13;;;2.30;79.90;;;;;;4991643;29;20076;-77
2020/12/21 08:15:28;;;;;;;13.30;12.20;;;2.20;79.90;;;;;;4992428;29;20532;-77
2020/12/21 08:18:00;;;;;;;12.90;11.60;;;2.10;80.20;;;;;;4992147;29;20050;-77
2020/12/21 08:20:33;;;;;;;13.23;12.02;;;2.10;80.20;;;;;;4984493;29;20548;-77
2020/12/21 08:23:04;;;;;;;12.48;11.27;;;2.10;80.70;;;;;;4992887;29;20074;-77
2020/12/21 08:25:36;;;;;;;16.80;15.23;;;2.10;80.50;;;;;;4991584;29;20110;-77
2020/12/21 08:28:07;;;;;;;11.27;10.27;;;2.20;80.70;;;;;;5002201;29;20058;-77
2020/12/21 08:30:42;;;;;;;11.35;10.35;;;2.20;82.30;;;;;;4986669;29;20106;-77
2020/12/21 08:33:14;;;;;;;11.10;10.23;;;2.30;82.50;;;;;;4976749;29;20062;-77
2020/12/21 08:35:47;;;;;;;11.10;10.20;;;2.40;82.20;;;;;;4991900;29;20046;-77
2020/12/21 08:38:35;;;;;;;11.73;10.73;;;2.60;81.90;;;;;;4990114;29;20444;-77
2020/12/21 08:41:07;;;;;;;11.93;10.93;;;2.60;81.30;;;;;;4989814;29;20054;-77
2020/12/21 08:43:39;;;;;;;11.45;10.45;;;2.60;81.20;;;;;;4989281;29;20622;-77
2020/12/21 08:46:12;;;;;;;12.02;11.02;;;2.60;81.70;;;;;;4989768;29;20053;-77
2020/12/21 08:48:44;;;;;;;12.48;11.38;;;2.70;82.90;;;;;;4991733;29;20600;-77
2020/12/21 08:51:16;;;;;;;14.10;12.70;;;2.80;82.00;;;;;;4991850;29;20050;-77
2020/12/21 08:53:58;;;;;;;13.07;11.77;;;2.80;81.50;;;;;;4991773;29;20053;-77
2020/12/21 08:56:30;;;;;;;13.38;12.18;;;2.90;81.20;;;;;;4988552;29;20102;-77
2020/12/21 08:59:01;;;;;;;13.80;12.57;;;3.00;80.80;;;;;;4991467;29;20054;-77
2020/12/21 09:01:33;;;;;;;13.57;12.40;;;3.00;80.60;;;;;;4991975;29;20065;-77
2020/12/21 09:04:05;;;;;;;13.30;12.15;;;3.10;80.70;;;;;;4990852;29;20048;-77
2020/12/21 09:06:36;;;;;;;13.23;12.13;;;3.10;80.90;;;;;;4990732;29;20081;-77
2020/12/21 09:09:10;;;;;;;12.40;11.40;;;3.10;81.00;;;;;;4990521;29;20038;-77
2020/12/21 09:11:42;;;;;;;12.18;11.18;;;3.10;80.70;;;;;;4992190;29;20129;-77
2020/12/21 09:14:13;;;;;;;12.25;11.25;;;3.20;80.30;;;;;;4995658;29;20109;-77
2020/12/21 09:16:46;;;;;;;11.85;10.95;;;3.30;80.00;;;;;;4990077;29;20046;-77
2020/12/21 09:19:18;;;;;;;11.48;10.45;;;3.30;79.60;;;;;;4991244;29;20122;-77
2020/12/21 09:21:50;;;;;;;11.55;10.65;;;3.40;79.60;;;;;;4991741;29;20150;-77
2020/12/21 09:24:21;;;;;;;11.48;10.55;;;3.50;79.00;;;;;;4961285;29;20129;-77
2020/12/21 09:26:53;;;;;;;10.45;9.55;;;3.50;78.60;;;;;;4991334;29;20061;-77
2020/12/21 09:29:27;;;;;;;11.38;10.48;;;3.50;78.50;;;;;;4988674;29;20130;-77
2020/12/21 09:31:59;;;;;;;11.43;10.45;;;3.50;78.40;;;;;;4988764;29;20516;-77
2020/12/21 09:34:31;;;;;;;11.52;10.63;;;3.60;78.20;;;;;;4991240;29;20049;-77
2020/12/21 09:37:03;;;;;;;11.13;10.23;;;3.60;78.60;;;;;;4991674;29;20057;-77
2020/12/21 09:39:34;;;;;;;11.88;10.88;;;3.70;78.80;;;;;;4987973;29;20129;-77
2020/12/21 09:42:06;;;;;;;10.93;10.00;;;3.80;78.60;;;;;;5004985;29;20049;-77
2020/12/21 09:44:37;;;;;;;10.68;9.77;;;3.90;78.90;;;;;;5001771;29;20352;-77
2020/12/21 09:47:09;;;;;;;11.20;10.30;;;3.90;79.20;;;;;;4989598;29;20066;-78
2020/12/21 09:49:40;;;;;;;11.80;10.80;;;4.00;79.10;;;;;;4991737;29;20054;-77
2020/12/21 09:52:12;;;;;;;11.15;10.25;;;4.20;79.00;;;;;;4993460;29;20112;-77
2020/12/21 09:54:43;;;;;;;11.73;10.77;;;4.30;78.90;;;;;;4996329;29;20056;-77
2020/12/21 09:57:15;;;;;;;11.70;10.80;;;4.30;77.60;;;;;;4996220;29;20137;-77
2020/12/21 09:59:46;;;;;;;10.77;9.88;;;4.40;76.70;;;;;;4995023;29;20056;-77
2020/12/21 10:02:18;;;;;;;11.15;10.35;;;4.50;75.80;;;;;;4992059;29;20053;-77
2020/12/21 10:04:49;;;;;;;11.30;10.43;;;4.50;75.50;;;;;;4995365;29;20073;-77
2020/12/21 10:07:21;;;;;;;11.10;10.20;;;4.60;75.70;;;;;;4993306;29;20101;-77
2020/12/21 10:09:52;;;;;;;10.90;10.10;;;4.60;75.40;;;;;;4995871;29;20513;-77
2020/12/21 10:12:24;;;;;;;10.38;9.52;;;4.70;75.50;;;;;;5008927;29;20460;-77
2020/12/21 10:14:55;;;;;;;11.88;10.88;;;4.70;75.70;;;;;;4994504;29;20066;-77
2020/12/21 10:17:26;;;;;;;15.80;14.20;;;4.80;76.50;;;;;;4993563;29;20074;-77
2020/12/21 10:19:58;;;;;;;17.02;15.32;;;4.90;76.60;;;;;;4994615;29;20095;-77
2020/12/21 10:22:29;;;;;;;17.45;15.77;;;5.00;76.80;;;;;;4991850;29;20557;-77
2020/12/21 10:25:01;;;;;;;20.42;18.27;;;5.10;76.90;;;;;;4992950;29;20501;-77
2020/12/21 10:27:33;;;;;;;15.88;14.30;;;5.10;76.90;;;;;;4994226;29;20058;-77
2020/12/21 10:30:06;;;;;;;15.00;13.57;;;5.20;77.00;;;;;;4994785;29;20543;-77
2020/12/21 10:32:37;;;;;;;14.60;13.30;;;5.30;76.70;;;;;;4998059;29;20581;-77
2020/12/21 10:35:10;;;;;;;23.25;18.90;;;5.30;76.90;;;;;;5000127;29;20544;-77
2020/12/21 10:37:42;;;;;;;48.60;30.60;;;5.40;77.30;;;;;;4992857;29;20058;-77
2020/12/21 10:40:13;;;;;;;24.88;20.75;;;5.40;76.70;;;;;;4993446;29;20172;-77
2020/12/21 10:42:45;;;;;;;24.85;20.40;;;5.50;77.00;;;;;;5006956;29;20547;-77
2020/12/21 10:45:16;;;;;;;19.83;17.05;;;5.50;76.90;;;;;;4992432;29;20634;-77
2020/12/21 10:47:48;;;;;;;27.40;21.77;;;5.60;77.00;;;;;;4989100;29;20512;-77
2020/12/21 10:50:19;;;;;;;29.60;22.45;;;5.60;77.00;;;;;;4993212;29;20057;-77
2020/12/21 10:52:51;;;;;;;20.90;18.48;;;5.70;76.80;;;;;;4994565;29;20054;-77
2020/12/21 10:55:22;;;;;;;19.10;16.92;;;5.70;77.00;;;;;;4977943;29;20053;-76
2020/12/21 10:57:53;;;;;;;16.65;14.95;;;5.80;76.80;;;;;;4992954;29;20050;-77
2020/12/21 11:00:25;;;;;;;16.27;14.65;;;5.90;76.20;;;;;;4993173;29;20512;-77
2020/12/21 11:02:57;;;;;;;16.55;14.85;;;5.90;75.90;;;;;;4994151;29;20532;-77
2020/12/21 11:05:28;;;;;;;16.38;14.77;;;5.90;75.30;;;;;;4995035;29;20046;-77
2020/12/21 11:08:00;;;;;;;14.35;13.05;;;6.00;75.00;;;;;;4979381;29;20069;-76
2020/12/21 11:10:32;;;;;;;14.27;12.98;;;6.00;75.30;;;;;;4993319;29;20046;-77
2020/12/21 11:13:04;;;;;;;13.48;12.20;;;6.00;75.00;;;;;;4969611;29;20080;-77
2020/12/21 11:15:35;;;;;;;13.88;12.52;;;5.90;75.40;;;;;;4993826;29;20459;-76
2020/12/21 11:18:06;;;;;;;13.75;12.45;;;5.90;74.90;;;;;;4994256;29;20085;-76
2020/12/21 11:20:38;;;;;;;13.75;12.55;;;5.90;75.40;;;;;;4995017;29;20609;-76
2020/12/21 11:23:10;;;;;;;13.55;12.25;;;6.00;75.00;;;;;;4992962;29;20138;-76
2020/12/21 11:25:42;;;;;;;13.32;12.13;;;6.00;74.50;;;;;;4992702;29;20049;-76
2020/12/21 11:28:13;;;;;;;13.93;12.73;;;6.00;75.10;;;;;;4977944;29;20062;-76
2020/12/21 11:30:45;;;;;;;13.38;12.27;;;6.00;75.30;;;;;;4991827;29;20451;-76
2020/12/21 11:33:16;;;;;;;13.18;12.07;;;6.00;74.80;;;;;;4992219;29;20433;-77
2020/12/21 11:35:48;;;;;;;12.77;11.68;;;6.00;75.00;;;;;;5004772;29;20107;-76
2020/12/21 11:38:19;;;;;;;12.75;11.65;;;6.00;74.60;;;;;;4992759;29;20054;-76
2020/12/21 11:40:53;;;;;;;12.68;11.68;;;6.10;74.70;;;;;;4989530;29;20054;-76
2020/12/21 11:43:28;;;;;;;12.18;11.07;;;6.10;74.30;;;;;;4992086;29;20601;-76
2020/12/21 11:46:00;;;;;;;12.32;11.32;;;6.10;75.30;;;;;;4990303;29;20046;-76
2020/12/21 11:48:33;;;;;;;12.25;11.20;;;6.20;75.10;;;;;;4994704;29;20053;-76
2020/12/21 11:51:05;;;;;;;13.93;12.65;;;6.20;75.30;;;;;;4990884;29;20046;-77
2020/12/21 11:53:40;;;;;;;25.48;21.13;;;6.20;73.80;;;;;;4993236;29;20069;-77
2020/12/21 11:56:21;;;;;;;16.05;14.45;;;6.20;73.50;;;;;;4991000;29;20111;-77
2020/12/21 11:58:53;;;;;;;12.50;11.40;;;6.30;73.50;;;;;;4992726;29;20045;-76
2020/12/21 12:01:24;;;;;;;12.55;11.55;;;6.20;73.30;;;;;;4989970;29;20099;-76
2020/12/21 12:03:55;;;;;;;12.60;11.50;;;6.10;73.50;;;;;;4993948;29;20634;-76
2020/12/21 12:06:27;;;;;;;12.55;11.35;;;6.20;74.00;;;;;;4995856;29;20133;-76
2020/12/21 12:08:59;;;;;;;12.13;10.85;;;6.20;73.20;;;;;;4994491;29;20437;-76
2020/12/21 12:11:30;;;;;;;12.40;11.38;;;6.20;72.80;;;;;;4991489;29;20062;-76
2020/12/21 12:14:01;;;;;;;12.88;11.77;;;6.20;73.30;;;;;;5005911;29;20043;-77
2020/12/21 12:16:33;;;;;;;12.23;11.18;;;6.20;73.00;;;;;;4990676;29;20239;-76
2020/12/21 12:19:05;;;;;;;42.35;30.25;;;6.30;74.20;;;;;;4992196;29;20046;-76
2020/12/21 12:21:36;;;;;;;17.95;16.13;;;6.30;72.90;;;;;;4992613;29;20057;-77
2020/12/21 12:24:07;;;;;;;16.63;15.00;;;6.30;72.60;;;;;;4993595;29;20056;-76
2020/12/21 12:26:39;;;;;;;13.52;12.32;;;6.40;72.90;;;;;;4992429;29;20060;-77
2020/12/21 12:29:11;;;;;;;14.60;13.30;;;6.40;73.30;;;;;;4992902;29;20067;-76
2020/12/21 12:31:43;;;;;;;15.38;13.98;;;6.40;73.10;;;;;;4991925;29;20041;-77
2020/12/21 12:34:14;;;;;;;15.13;13.73;;;6.50;73.80;;;;;;4997973;29;20046;-77
2020/12/21 12:36:48;;;;;;;15.30;13.95;;;6.60;73.80;;;;;;5004033;29;20056;-76
2020/12/21 12:39:19;;;;;;;14.23;12.82;;;6.50;73.70;;;;;;5005039;29;20039;-77
2020/12/21 12:41:51;;;;;;;13.52;12.23;;;6.60;73.80;;;;;;4990613;29;20113;-77
2020/12/21 12:44:22;;;;;;;13.38;12.27;;;6.50;72.50;;;;;;4990380;29;20054;-77
2020/12/21 12:46:54;;;;;;;14.85;13.55;;;6.40;73.00;;;;;;4997215;29;20057;-76
2020/12/21 12:49:25;;;;;;;13.70;12.60;;;6.40;72.30;;;;;;4974785;29;20535;-75
2020/12/21 12:51:56;;;;;;;13.20;12.00;;;6.50;72.80;;;;;;4954695;29;1169478;-75
2020/12/21 12:54:28;;;;;;;13.73;12.43;;;6.60;73.30;;;;;;4993323;29;20051;-75
2020/12/21 12:57:00;;;;;;;13.75;12.65;;;6.60;72.50;;;;;;4994267;29;20148;-76
2020/12/21 12:59:31;;;;;;;14.23;12.85;;;6.70;71.90;;;;;;4992035;29;20042;-75
2020/12/21 13:02:03;;;;;;;13.23;12.05;;;6.60;72.00;;;;;;4991597;29;20054;-75